createdAt,value
2023-03-23T15:57:53.656Z,1.17
2023-03-23T16:00:21.793Z,0.70
2023-03-23T16:02:51.173Z,1.70
2023-03-23T16:05:18.063Z,3.10
2023-03-23T16:07:44.831Z,2.17
2023-03-23T16:10:22.372Z,1.67
2023-03-23T16:12:49.068Z,1.67
2023-03-23T16:15:16.144Z,1.40
2023-03-23T16:17:43.115Z,1.33
2023-03-23T16:20:19.451Z,0.83
2023-03-23T16:22:46.643Z,0.77
2023-03-23T16:25:13.474Z,0.60
2023-03-23T16:27:40.646Z,0.60
2023-03-23T16:30:19.320Z,0.60
2023-03-23T16:32:47.030Z,0.60
2023-03-23T16:35:14.773Z,0.73
2023-03-23T16:37:48.967Z,0.50
2023-03-23T16:40:16.378Z,0.70
2023-03-23T16:42:43.296Z,0.50
2023-03-23T16:45:10.405Z,0.60
2023-03-23T16:47:37.312Z,0.93
2023-03-23T16:50:06.814Z,0.70
2023-03-23T16:52:34.136Z,1.10
2023-03-23T16:55:13.678Z,1.07
2023-03-23T16:57:42.062Z,1.30
2023-03-23T17:00:12.632Z,1.23
2023-03-23T17:02:42.000Z,1.00
2023-03-23T17:05:10.808Z,1.40
2023-03-23T17:07:41.357Z,1.50
2023-03-23T17:10:09.422Z,1.30
2023-03-23T17:12:36.161Z,1.57
2023-03-23T17:15:03.767Z,1.30
2023-03-23T17:17:30.577Z,1.27
2023-03-23T17:19:57.565Z,1.00
2023-03-23T17:22:24.427Z,0.80
2023-03-23T17:24:51.199Z,0.80
2023-03-23T17:27:19.994Z,0.77
2023-03-23T17:29:46.746Z,0.60
2023-03-23T17:32:13.800Z,0.70
2023-03-23T17:34:40.594Z,1.03
2023-03-23T17:37:07.460Z,0.87
2023-03-23T17:39:43.275Z,0.80
2023-03-23T17:42:10.453Z,0.80
2023-03-23T17:44:37.238Z,0.77
2023-03-23T17:47:04.145Z,0.53
2023-03-23T17:49:31.223Z,0.93
2023-03-23T17:51:58.626Z,0.93
2023-03-23T17:54:25.974Z,0.90
2023-03-23T17:56:53.187Z,1.20
2023-03-23T17:59:20.095Z,0.97
2023-03-23T18:01:49.009Z,1.03
2023-03-23T18:04:16.230Z,0.93
2023-03-23T18:06:43.057Z,0.90
2023-03-23T18:09:09.913Z,0.90
2023-03-23T18:11:36.776Z,0.83
2023-03-23T18:14:03.598Z,1.10
2023-03-23T18:16:30.789Z,0.80
2023-03-23T18:18:57.673Z,0.83
2023-03-23T18:21:24.473Z,1.10
2023-03-23T18:23:59.365Z,1.40
2023-03-23T18:26:27.417Z,0.97
2023-03-23T18:28:54.320Z,1.03
2023-03-23T18:31:21.381Z,1.47
2023-03-23T18:33:49.553Z,1.60
2023-03-23T18:36:17.978Z,1.17
2023-03-23T18:38:48.185Z,1.57
2023-03-23T18:41:15.184Z,1.30
2023-03-23T18:43:41.987Z,1.40
2023-03-23T18:46:08.789Z,1.50
2023-03-23T18:48:36.152Z,1.33
2023-03-23T18:51:03.046Z,1.00
2023-03-23T18:53:29.905Z,1.47
2023-03-23T18:56:13.430Z,1.33
2023-03-23T18:58:40.188Z,1.20
2023-03-23T19:01:08.474Z,1.40
2023-03-23T19:03:36.131Z,1.60
2023-03-23T19:06:04.464Z,0.87
2023-03-23T19:08:31.651Z,0.87
2023-03-23T19:11:00.983Z,1.53
2023-03-23T19:13:29.059Z,1.50
2023-03-23T19:15:55.975Z,1.13
2023-03-23T19:18:22.940Z,1.50
2023-03-23T19:21:13.525Z,1.23
2023-03-23T19:23:41.396Z,1.07
2023-03-23T19:26:08.134Z,1.27
2023-03-23T19:31:04.917Z,1.50
2023-03-23T19:33:31.732Z,1.30
2023-03-23T19:36:09.381Z,1.20
2023-03-23T19:38:39.639Z,1.63
2023-03-23T19:41:06.909Z,1.50
2023-03-23T19:43:34.099Z,1.70
2023-03-23T19:46:00.906Z,1.67
2023-03-23T19:48:28.716Z,1.50
2023-03-23T19:50:56.433Z,1.43
2023-03-23T19:53:23.539Z,1.97
2023-03-23T19:55:50.600Z,1.77
2023-03-23T19:58:17.741Z,1.53
2023-03-23T20:00:45.829Z,1.30
2023-03-23T20:03:13.043Z,1.33
2023-03-23T20:05:40.732Z,1.10
2023-03-23T20:08:09.144Z,1.53
2023-03-23T20:10:36.084Z,1.20
2023-03-23T20:13:03.426Z,1.30
2023-03-23T20:15:30.477Z,1.20
2023-03-23T20:17:58.305Z,1.53
2023-03-23T20:20:25.325Z,1.23
2023-03-23T20:22:53.931Z,1.40
2023-03-23T20:25:22.783Z,1.10
2023-03-23T20:27:49.682Z,1.10
2023-03-23T20:30:17.658Z,1.50
2023-03-23T20:32:46.366Z,1.70
2023-03-23T20:35:14.592Z,1.30
2023-03-23T20:37:41.502Z,1.70
2023-03-23T20:40:14.694Z,1.53
2023-03-23T20:42:43.892Z,1.37
2023-03-23T20:45:11.984Z,1.90
2023-03-23T20:47:38.999Z,1.57
2023-03-23T20:50:07.355Z,2.00
2023-03-23T20:52:34.179Z,2.00
2023-03-23T20:55:01.070Z,2.03
2023-03-23T20:57:28.882Z,1.93
2023-03-23T20:59:55.842Z,1.27
2023-03-23T21:02:24.973Z,1.70
2023-03-23T21:04:52.901Z,1.40
2023-03-23T21:07:23.042Z,1.40
2023-03-23T21:09:49.894Z,1.40
2023-03-23T21:12:16.615Z,1.50
2023-03-23T21:14:44.910Z,1.30
2023-03-23T21:17:11.771Z,0.90
2023-03-23T21:19:38.701Z,1.30
2023-03-23T21:22:05.457Z,1.40
2023-03-23T21:24:32.287Z,1.17
2023-03-23T21:27:00.301Z,1.30
2023-03-23T21:29:27.475Z,1.20
2023-03-23T21:32:05.247Z,1.03
2023-03-23T21:34:36.045Z,1.60
2023-03-23T21:37:02.722Z,1.20
2023-03-23T21:39:29.485Z,1.17
2023-03-23T21:41:56.284Z,1.40
2023-03-23T21:44:23.020Z,1.70
2023-03-23T21:46:52.185Z,1.40
2023-03-23T21:49:19.017Z,1.20
2023-03-23T21:51:45.838Z,1.30
2023-03-23T21:54:13.137Z,1.30
2023-03-23T21:56:40.193Z,1.33
2023-03-23T21:59:07.790Z,1.67
2023-03-23T22:01:36.763Z,1.33
2023-03-23T22:04:04.407Z,1.80
2023-03-23T22:06:31.494Z,1.67
2023-03-23T22:08:58.346Z,1.80
2023-03-23T22:11:26.901Z,1.77
2023-03-23T22:13:54.729Z,1.63
2023-03-23T22:16:21.909Z,1.70
2023-03-23T22:18:49.269Z,1.23
2023-03-23T22:21:16.721Z,1.40
2023-03-23T22:23:43.920Z,1.43
2023-03-23T22:26:11.105Z,1.33
2023-03-23T22:28:38.537Z,1.87
2023-03-23T22:31:12.077Z,1.30
2023-03-23T22:33:38.928Z,1.70
2023-03-23T22:36:06.695Z,1.80
2023-03-23T22:38:37.664Z,1.67
2023-03-23T22:41:07.078Z,1.87
2023-03-23T22:43:37.198Z,1.80
2023-03-23T22:46:04.765Z,1.30
2023-03-23T22:48:31.613Z,1.33
2023-03-23T22:50:58.607Z,1.67
2023-03-23T22:53:25.402Z,2.17
2023-03-23T22:55:53.863Z,1.90
2023-03-23T22:58:20.700Z,1.40
2023-03-23T23:00:49.591Z,2.07
2023-03-23T23:03:16.706Z,1.60
2023-03-23T23:05:44.700Z,1.70
2023-03-23T23:08:13.513Z,1.93
2023-03-23T23:10:42.112Z,1.70
2023-03-23T23:13:09.429Z,1.47
2023-03-23T23:15:36.870Z,1.73
2023-03-23T23:18:04.956Z,1.77
2023-03-23T23:20:33.274Z,1.70
2023-03-23T23:23:00.548Z,1.73
2023-03-23T23:25:28.532Z,1.47
2023-03-23T23:27:56.380Z,1.70
2023-03-23T23:30:23.184Z,1.53
2023-03-23T23:32:52.247Z,1.37
2023-03-23T23:35:21.990Z,1.40
2023-03-23T23:37:48.926Z,1.40
2023-03-23T23:40:16.094Z,1.87
2023-03-23T23:42:43.890Z,1.60
2023-03-23T23:45:10.824Z,1.37
2023-03-23T23:47:38.532Z,1.33
2023-03-23T23:50:07.269Z,1.47
2023-03-23T23:52:34.583Z,1.30
2023-03-23T23:55:01.376Z,1.37
2023-03-23T23:57:28.192Z,1.60
2023-03-23T23:59:54.910Z,1.53
